Terminal Aerodrome Forecast
Issued by NWS Upton, NY

Home | Current Version | Previous Version | Text Only | Print | Product List | Glossary On
Versions: 1 2 3 4 5 6 7 8 9 10 11 12 13 14 15 16 17 18 19 20 21 22 23 24 25 26 27 28 29 30 31 32 33 34 35 36 37
000
FTUS41 KOKX 190838 AAA
TAFISP
TAF AMD
KISP 190838Z 1909/2006 05005KT P6SM VCSH OVC060
     FM191100 03007KT 6SM -SHRA SCT025 OVC050
     FM191300 03009KT 5SM BR VCSH OVC025
     FM191700 36010KT 4SM -RA BR BKN007 OVC012
     FM192100 32012G20KT 6SM -SHRA BKN020
     FM192300 31016G24KT P6SM BKN040=

USA.gov is the U.S. government's official web portal to all federal, state and local government web resources and services.